Barrington, Rhode Island
Current Conditions -  °F | °C
As of 1:51 AM on Wednesday 22 Oct 2014 (Local Time) from KPVD Reporting Station
Overcast Overcast  
Wind Chill: 55°   Ceiling: 600
Heat Index: 55°   Visibility: 8mi
Dew Point: 53°   Wind: 13mph
Humidity: 93%   Direction: 20°NNE
Pressure: 29.95"   Gusts: NA
Location:  41.74°N, 71.31°W
Report Text: KPVD 220551Z AUTO 02011KT 8SM OVC006 13/12 A2995 RMK AO2 SLP142 T01280117 10139 20128 58004
Loading
Personal Weather Stations






























Interactive Weather Map
Tropical Storm Tracking
New forecast layout! Learn more

10-Day Weather Forecast

Advertisements
Track Severe Weather on mobile